sensor_id;sensor_type;location;lat;lon;timestamp;temperature;humidity
79356;SHT31;68825;51.978;5.654;2024-03-02T00:01:56;11.1;58.1
79356;SHT31;68825;51.978;5.654;2024-03-02T00:04:25;11.1;58.0
79356;SHT31;68825;51.978;5.654;2024-03-02T00:06:54;11.2;58.0
79356;SHT31;68825;51.978;5.654;2024-03-02T00:09:22;11.2;57.8
79356;SHT31;68825;51.978;5.654;2024-03-02T00:11:51;11.2;58.0
79356;SHT31;68825;51.978;5.654;2024-03-02T00:14:20;11.2;58.0
79356;SHT31;68825;51.978;5.654;2024-03-02T00:16:50;11.2;57.8
79356;SHT31;68825;51.978;5.654;2024-03-02T00:19:22;11.2;57.8
79356;SHT31;68825;51.978;5.654;2024-03-02T00:21:51;11.2;57.9
79356;SHT31;68825;51.978;5.654;2024-03-02T00:24:24;11.2;58.3
79356;SHT31;68825;51.978;5.654;2024-03-02T00:26:55;11.2;58.2
79356;SHT31;68825;51.978;5.654;2024-03-02T00:29:24;11.2;58.3
79356;SHT31;68825;51.978;5.654;2024-03-02T00:31:53;11.2;58.5
79356;SHT31;68825;51.978;5.654;2024-03-02T00:34:24;11.2;59.1
79356;SHT31;68825;51.978;5.654;2024-03-02T00:36:53;11.2;59.1
79356;SHT31;68825;51.978;5.654;2024-03-02T00:39:21;11.2;59.5
79356;SHT31;68825;51.978;5.654;2024-03-02T00:41:50;11.2;59.5
79356;SHT31;68825;51.978;5.654;2024-03-02T00:44:25;11.2;60.0
79356;SHT31;68825;51.978;5.654;2024-03-02T00:46:58;11.2;59.3
79356;SHT31;68825;51.978;5.654;2024-03-02T00:49:28;11.2;59.3
79356;SHT31;68825;51.978;5.654;2024-03-02T00:51:57;11.2;59.0
79356;SHT31;68825;51.978;5.654;2024-03-02T00:54:28;11.2;58.9
79356;SHT31;68825;51.978;5.654;2024-03-02T00:56:57;11.2;59.3
79356;SHT31;68825;51.978;5.654;2024-03-02T00:59:26;11.2;59.5
79356;SHT31;68825;51.978;5.654;2024-03-02T01:01:56;11.3;59.8
79356;SHT31;68825;51.978;5.654;2024-03-02T01:04:24;11.3;60.7
79356;SHT31;68825;51.978;5.654;2024-03-02T01:06:53;11.3;61.4
79356;SHT31;68825;51.978;5.654;2024-03-02T01:09:21;11.3;61.6
79356;SHT31;68825;51.978;5.654;2024-03-02T01:11:50;11.2;61.7
79356;SHT31;68825;51.978;5.654;2024-03-02T01:14:19;11.2;62.0
79356;SHT31;68825;51.978;5.654;2024-03-02T01:16:49;11.2;62.2
79356;SHT31;68825;51.978;5.654;2024-03-02T01:19:18;11.2;62.5
79356;SHT31;68825;51.978;5.654;2024-03-02T01:21:47;11.2;62.7
79356;SHT31;68825;51.978;5.654;2024-03-02T01:24:16;11.2;62.4
79356;SHT31;68825;51.978;5.654;2024-03-02T01:26:45;11.2;62.9
79356;SHT31;68825;51.978;5.654;2024-03-02T01:29:13;11.2;63.3
79356;SHT31;68825;51.978;5.654;2024-03-02T01:31:42;11.2;63.4
79356;SHT31;68825;51.978;5.654;2024-03-02T01:34:13;11.1;63.5
79356;SHT31;68825;51.978;5.654;2024-03-02T01:36:42;11.1;63.5
79356;SHT31;68825;51.978;5.654;2024-03-02T01:39:10;11.1;63.5
79356;SHT31;68825;51.978;5.654;2024-03-02T01:41:41;11.1;63.5
79356;SHT31;68825;51.978;5.654;2024-03-02T01:44:12;11.1;64.0
79356;SHT31;68825;51.978;5.654;2024-03-02T01:46:40;11.1;63.8
79356;SHT31;68825;51.978;5.654;2024-03-02T01:49:09;11.1;63.9
79356;SHT31;68825;51.978;5.654;2024-03-02T01:51:38;11.1;63.7
79356;SHT31;68825;51.978;5.654;2024-03-02T01:54:07;11.1;63.9
79356;SHT31;68825;51.978;5.654;2024-03-02T01:56:36;11.1;63.8
79356;SHT31;68825;51.978;5.654;2024-03-02T01:59:06;11.1;64.0
79356;SHT31;68825;51.978;5.654;2024-03-02T02:01:35;11.1;64.1
79356;SHT31;68825;51.978;5.654;2024-03-02T02:04:04;11.1;63.8
79356;SHT31;68825;51.978;5.654;2024-03-02T02:06:32;11.0;63.9
79356;SHT31;68825;51.978;5.654;2024-03-02T02:09:01;11.0;64.0
79356;SHT31;68825;51.978;5.654;2024-03-02T02:11:30;11.0;64.3
79356;SHT31;68825;51.978;5.654;2024-03-02T02:13:58;11.0;64.2
79356;SHT31;68825;51.978;5.654;2024-03-02T02:16:27;11.0;64.4
79356;SHT31;68825;51.978;5.654;2024-03-02T02:18:55;11.0;64.2
79356;SHT31;68825;51.978;5.654;2024-03-02T02:21:24;11.0;64.1
79356;SHT31;68825;51.978;5.654;2024-03-02T02:23:54;10.9;64.3
79356;SHT31;68825;51.978;5.654;2024-03-02T02:26:22;10.9;64.2
79356;SHT31;68825;51.978;5.654;2024-03-02T02:28:51;10.9;64.4
79356;SHT31;68825;51.978;5.654;2024-03-02T02:31:21;10.9;64.4
79356;SHT31;68825;51.978;5.654;2024-03-02T02:33:50;10.9;64.4
79356;SHT31;68825;51.978;5.654;2024-03-02T02:36:18;10.9;65.0
79356;SHT31;68825;51.978;5.654;2024-03-02T02:38:48;10.9;65.3
79356;SHT31;68825;51.978;5.654;2024-03-02T02:41:17;10.9;65.3
79356;SHT31;68825;51.978;5.654;2024-03-02T02:43:46;10.9;65.8
79356;SHT31;68825;51.978;5.654;2024-03-02T02:46:15;10.9;66.0
79356;SHT31;68825;51.978;5.654;2024-03-02T02:48:43;10.9;66.3
79356;SHT31;68825;51.978;5.654;2024-03-02T02:51:12;10.8;66.7
79356;SHT31;68825;51.978;5.654;2024-03-02T02:53:40;10.8;66.9
79356;SHT31;68825;51.978;5.654;2024-03-02T02:56:10;10.8;67.2
79356;SHT31;68825;51.978;5.654;2024-03-02T02:58:39;10.8;67.1
79356;SHT31;68825;51.978;5.654;2024-03-02T03:01:08;10.8;67.5
79356;SHT31;68825;51.978;5.654;2024-03-02T03:03:37;10.8;67.3
79356;SHT31;68825;51.978;5.654;2024-03-02T03:06:05;10.8;67.5
79356;SHT31;68825;51.978;5.654;2024-03-02T03:08:35;10.8;67.4
79356;SHT31;68825;51.978;5.654;2024-03-02T03:11:04;10.8;67.2
79356;SHT31;68825;51.978;5.654;2024-03-02T03:13:34;10.7;67.1
79356;SHT31;68825;51.978;5.654;2024-03-02T03:16:03;10.7;67.6
79356;SHT31;68825;51.978;5.654;2024-03-02T03:18:32;10.7;67.3
79356;SHT31;68825;51.978;5.654;2024-03-02T03:21:00;10.7;67.7
79356;SHT31;68825;51.978;5.654;2024-03-02T03:23:31;10.6;67.4
79356;SHT31;68825;51.978;5.654;2024-03-02T03:25:59;10.6;67.0
79356;SHT31;68825;51.978;5.654;2024-03-02T03:28:29;10.6;67.4
79356;SHT31;68825;51.978;5.654;2024-03-02T03:30:58;10.6;67.2
79356;SHT31;68825;51.978;5.654;2024-03-02T03:33:28;10.5;67.2
79356;SHT31;68825;51.978;5.654;2024-03-02T03:35:57;10.5;67.5
79356;SHT31;68825;51.978;5.654;2024-03-02T03:38:25;10.5;67.0
79356;SHT31;68825;51.978;5.654;2024-03-02T03:40:54;10.5;67.2
79356;SHT31;68825;51.978;5.654;2024-03-02T03:43:22;10.4;67.0
79356;SHT31;68825;51.978;5.654;2024-03-02T03:45:53;10.4;67.1
79356;SHT31;68825;51.978;5.654;2024-03-02T03:48:21;10.4;66.9
79356;SHT31;68825;51.978;5.654;2024-03-02T03:50:50;10.4;67.4
79356;SHT31;68825;51.978;5.654;2024-03-02T03:53:18;10.4;66.9
79356;SHT31;68825;51.978;5.654;2024-03-02T03:55:49;10.4;67.1
79356;SHT31;68825;51.978;5.654;2024-03-02T03:58:17;10.4;66.9
79356;SHT31;68825;51.978;5.654;2024-03-02T04:00:47;10.3;67.1
79356;SHT31;68825;51.978;5.654;2024-03-02T04:03:15;10.3;67.0
79356;SHT31;68825;51.978;5.654;2024-03-02T04:05:44;10.3;67.5
79356;SHT31;68825;51.978;5.654;2024-03-02T04:08:12;10.3;67.0
79356;SHT31;68825;51.978;5.654;2024-03-02T04:10:41;10.3;67.2
79356;SHT31;68825;51.978;5.654;2024-03-02T04:13:10;10.3;67.5
79356;SHT31;68825;51.978;5.654;2024-03-02T04:15:38;10.3;67.4
79356;SHT31;68825;51.978;5.654;2024-03-02T04:18:07;10.3;67.0
79356;SHT31;68825;51.978;5.654;2024-03-02T04:20:35;10.3;67.2
79356;SHT31;68825;51.978;5.654;2024-03-02T04:23:05;10.3;66.6
79356;SHT31;68825;51.978;5.654;2024-03-02T04:25:34;10.2;66.6
79356;SHT31;68825;51.978;5.654;2024-03-02T04:28:03;10.2;66.4
79356;SHT31;68825;51.978;5.654;2024-03-02T04:30:33;10.2;66.1
79356;SHT31;68825;51.978;5.654;2024-03-02T04:33:02;10.2;66.3
79356;SHT31;68825;51.978;5.654;2024-03-02T04:35:32;10.2;66.3
79356;SHT31;68825;51.978;5.654;2024-03-02T04:38:02;10.2;66.1
79356;SHT31;68825;51.978;5.654;2024-03-02T04:40:31;10.2;66.1
79356;SHT31;68825;51.978;5.654;2024-03-02T04:43:00;10.2;66.2
79356;SHT31;68825;51.978;5.654;2024-03-02T04:45:30;10.2;66.0
79356;SHT31;68825;51.978;5.654;2024-03-02T04:47:59;10.2;65.6
79356;SHT31;68825;51.978;5.654;2024-03-02T04:50:29;10.2;65.8
79356;SHT31;68825;51.978;5.654;2024-03-02T04:52:59;10.2;65.8
79356;SHT31;68825;51.978;5.654;2024-03-02T04:55:28;10.2;65.5
79356;SHT31;68825;51.978;5.654;2024-03-02T04:58:18;10.2;65.1
79356;SHT31;68825;51.978;5.654;2024-03-02T05:00:47;10.2;65.4
79356;SHT31;68825;51.978;5.654;2024-03-02T05:03:16;10.2;65.3
79356;SHT31;68825;51.978;5.654;2024-03-02T05:05:45;10.2;65.3
79356;SHT31;68825;51.978;5.654;2024-03-02T05:08:15;10.2;65.8
79356;SHT31;68825;51.978;5.654;2024-03-02T05:10:45;10.2;65.7
79356;SHT31;68825;51.978;5.654;2024-03-02T05:13:16;10.2;65.6
79356;SHT31;68825;51.978;5.654;2024-03-02T05:15:50;10.2;65.8
79356;SHT31;68825;51.978;5.654;2024-03-02T05:18:19;10.1;66.0
79356;SHT31;68825;51.978;5.654;2024-03-02T05:20:50;10.1;65.8
79356;SHT31;68825;51.978;5.654;2024-03-02T05:23:20;10.1;65.9
79356;SHT31;68825;51.978;5.654;2024-03-02T05:25:49;10.1;66.1
79356;SHT31;68825;51.978;5.654;2024-03-02T05:28:18;10.0;66.4
79356;SHT31;68825;51.978;5.654;2024-03-02T05:30:50;10.0;66.5
79356;SHT31;68825;51.978;5.654;2024-03-02T05:33:19;10.0;66.4
79356;SHT31;68825;51.978;5.654;2024-03-02T05:35:49;10.0;66.8
79356;SHT31;68825;51.978;5.654;2024-03-02T05:38:20;10.0;66.5
79356;SHT31;68825;51.978;5.654;2024-03-02T05:40:50;10.0;66.9
79356;SHT31;68825;51.978;5.654;2024-03-02T05:43:19;10.0;67.0
79356;SHT31;68825;51.978;5.654;2024-03-02T05:45:49;10.0;67.0
79356;SHT31;68825;51.978;5.654;2024-03-02T05:48:18;10.0;67.0
79356;SHT31;68825;51.978;5.654;2024-03-02T05:50:47;10.0;66.8
79356;SHT31;68825;51.978;5.654;2024-03-02T05:53:17;10.0;66.4
79356;SHT31;68825;51.978;5.654;2024-03-02T05:55:46;10.0;66.4
79356;SHT31;68825;51.978;5.654;2024-03-02T05:58:20;10.0;66.9
79356;SHT31;68825;51.978;5.654;2024-03-02T06:00:56;10.0;66.2
79356;SHT31;68825;51.978;5.654;2024-03-02T06:03:25;10.0;66.0
79356;SHT31;68825;51.978;5.654;2024-03-02T06:05:55;10.0;65.3
79356;SHT31;68825;51.978;5.654;2024-03-02T06:08:24;10.0;65.4
79356;SHT31;68825;51.978;5.654;2024-03-02T06:10:53;10.0;65.3
79356;SHT31;68825;51.978;5.654;2024-03-02T06:13:23;10.0;65.4
79356;SHT31;68825;51.978;5.654;2024-03-02T06:15:53;10.0;65.0
79356;SHT31;68825;51.978;5.654;2024-03-02T06:18:22;10.0;64.9
79356;SHT31;68825;51.978;5.654;2024-03-02T06:20:52;10.0;64.6
79356;SHT31;68825;51.978;5.654;2024-03-02T06:23:21;9.9;64.8
79356;SHT31;68825;51.978;5.654;2024-03-02T06:25:52;9.9;65.1
79356;SHT31;68825;51.978;5.654;2024-03-02T06:28:22;9.9;65.3
79356;SHT31;68825;51.978;5.654;2024-03-02T06:30:51;9.8;65.5
79356;SHT31;68825;51.978;5.654;2024-03-02T06:33:21;9.8;65.3
79356;SHT31;68825;51.978;5.654;2024-03-02T06:35:50;9.8;65.0
79356;SHT31;68825;51.978;5.654;2024-03-02T06:38:19;9.8;64.9
79356;SHT31;68825;51.978;5.654;2024-03-02T06:40:51;9.7;65.1
79356;SHT31;68825;51.978;5.654;2024-03-02T06:43:22;9.7;65.4
79356;SHT31;68825;51.978;5.654;2024-03-02T06:45:52;9.7;64.8
79356;SHT31;68825;51.978;5.654;2024-03-02T06:48:21;9.7;65.0
79356;SHT31;68825;51.978;5.654;2024-03-02T06:50:51;9.7;64.6
79356;SHT31;68825;51.978;5.654;2024-03-02T06:53:21;9.7;64.8
79356;SHT31;68825;51.978;5.654;2024-03-02T06:55:50;9.7;64.7
79356;SHT31;68825;51.978;5.654;2024-03-02T06:58:21;9.7;64.5
79356;SHT31;68825;51.978;5.654;2024-03-02T07:00:51;9.7;64.3
79356;SHT31;68825;51.978;5.654;2024-03-02T07:03:19;9.7;64.7
79356;SHT31;68825;51.978;5.654;2024-03-02T07:05:48;9.7;64.5
79356;SHT31;68825;51.978;5.654;2024-03-02T07:08:18;9.6;64.6
79356;SHT31;68825;51.978;5.654;2024-03-02T07:10:46;9.6;64.8
79356;SHT31;68825;51.978;5.654;2024-03-02T07:13:15;9.6;64.8
79356;SHT31;68825;51.978;5.654;2024-03-02T07:15:44;9.6;65.1
79356;SHT31;68825;51.978;5.654;2024-03-02T07:18:26;9.6;65.3
79356;SHT31;68825;51.978;5.654;2024-03-02T07:20:55;9.6;65.4
79356;SHT31;68825;51.978;5.654;2024-03-02T07:23:25;9.6;65.5
79356;SHT31;68825;51.978;5.654;2024-03-02T07:25:53;9.6;65.4
79356;SHT31;68825;51.978;5.654;2024-03-02T07:28:23;9.6;65.4
79356;SHT31;68825;51.978;5.654;2024-03-02T07:30:59;9.6;65.8
79356;SHT31;68825;51.978;5.654;2024-03-02T07:33:28;9.5;65.7
79356;SHT31;68825;51.978;5.654;2024-03-02T07:35:57;9.6;65.9
79356;SHT31;68825;51.978;5.654;2024-03-02T07:38:28;9.6;65.8
79356;SHT31;68825;51.978;5.654;2024-03-02T07:40:58;9.6;65.9
79356;SHT31;68825;51.978;5.654;2024-03-02T07:43:28;9.6;66.1
79356;SHT31;68825;51.978;5.654;2024-03-02T07:45:58;9.6;66.3
79356;SHT31;68825;51.978;5.654;2024-03-02T07:48:27;9.6;66.1
79356;SHT31;68825;51.978;5.654;2024-03-02T07:50:56;9.7;66.7
79356;SHT31;68825;51.978;5.654;2024-03-02T07:53:25;9.7;66.7
79356;SHT31;68825;51.978;5.654;2024-03-02T07:55:54;9.8;66.5
79356;SHT31;68825;51.978;5.654;2024-03-02T07:58:27;9.8;66.6
79356;SHT31;68825;51.978;5.654;2024-03-02T08:00:57;9.9;66.1
79356;SHT31;68825;51.978;5.654;2024-03-02T08:03:27;9.9;65.7
79356;SHT31;68825;51.978;5.654;2024-03-02T08:05:58;10.0;65.7
79356;SHT31;68825;51.978;5.654;2024-03-02T08:08:27;10.0;65.6
79356;SHT31;68825;51.978;5.654;2024-03-02T08:10:56;10.0;65.3
79356;SHT31;68825;51.978;5.654;2024-03-02T08:13:24;10.1;65.0
79356;SHT31;68825;51.978;5.654;2024-03-02T08:15:55;10.1;64.4
79356;SHT31;68825;51.978;5.654;2024-03-02T08:18:24;10.1;64.6
79356;SHT31;68825;51.978;5.654;2024-03-02T08:20:52;10.1;64.1
79356;SHT31;68825;51.978;5.654;2024-03-02T08:23:21;10.2;64.7
79356;SHT31;68825;51.978;5.654;2024-03-02T08:25:50;10.2;63.8
79356;SHT31;68825;51.978;5.654;2024-03-02T08:28:18;10.2;63.9
79356;SHT31;68825;51.978;5.654;2024-03-02T08:30:47;10.2;63.4
79356;SHT31;68825;51.978;5.654;2024-03-02T08:33:15;10.2;63.6
79356;SHT31;68825;51.978;5.654;2024-03-02T08:35:44;10.2;62.9
79356;SHT31;68825;51.978;5.654;2024-03-02T08:38:13;10.2;62.9
79356;SHT31;68825;51.978;5.654;2024-03-02T08:40:42;10.2;62.7
79356;SHT31;68825;51.978;5.654;2024-03-02T08:43:11;10.2;62.5
79356;SHT31;68825;51.978;5.654;2024-03-02T08:45:39;10.2;62.7
79356;SHT31;68825;51.978;5.654;2024-03-02T08:48:09;10.2;62.6
79356;SHT31;68825;51.978;5.654;2024-03-02T08:50:37;10.2;62.7
79356;SHT31;68825;51.978;5.654;2024-03-02T08:53:08;10.2;62.7
79356;SHT31;68825;51.978;5.654;2024-03-02T08:55:36;10.3;62.5
79356;SHT31;68825;51.978;5.654;2024-03-02T08:58:07;10.3;62.2
79356;SHT31;68825;51.978;5.654;2024-03-02T09:00:35;10.3;62.0
79356;SHT31;68825;51.978;5.654;2024-03-02T09:03:04;10.3;61.4
79356;SHT31;68825;51.978;5.654;2024-03-02T09:05:33;10.3;61.6
79356;SHT31;68825;51.978;5.654;2024-03-02T09:08:01;10.3;61.6
79356;SHT31;68825;51.978;5.654;2024-03-02T09:10:31;10.3;61.0
79356;SHT31;68825;51.978;5.654;2024-03-02T09:13:00;10.3;60.9
79356;SHT31;68825;51.978;5.654;2024-03-02T09:15:28;10.4;61.2
79356;SHT31;68825;51.978;5.654;2024-03-02T09:17:57;10.4;61.2
79356;SHT31;68825;51.978;5.654;2024-03-02T09:20:26;10.4;61.1
79356;SHT31;68825;51.978;5.654;2024-03-02T09:22:54;10.4;60.3
79356;SHT31;68825;51.978;5.654;2024-03-02T09:25:24;10.5;60.6
79356;SHT31;68825;51.978;5.654;2024-03-02T09:27:53;10.5;60.5
79356;SHT31;68825;51.978;5.654;2024-03-02T09:30:22;10.6;60.5
79356;SHT31;68825;51.978;5.654;2024-03-02T09:32:53;10.6;59.7
79356;SHT31;68825;51.978;5.654;2024-03-02T09:35:21;10.6;59.9
79356;SHT31;68825;51.978;5.654;2024-03-02T09:37:50;10.7;59.8
79356;SHT31;68825;51.978;5.654;2024-03-02T09:40:21;10.7;60.0
79356;SHT31;68825;51.978;5.654;2024-03-02T09:42:51;10.8;59.8
79356;SHT31;68825;51.978;5.654;2024-03-02T09:45:23;10.8;59.7
79356;SHT31;68825;51.978;5.654;2024-03-02T09:47:53;10.9;59.7
79356;SHT31;68825;51.978;5.654;2024-03-02T09:50:21;10.9;59.4
79356;SHT31;68825;51.978;5.654;2024-03-02T09:52:50;11.0;59.5
79356;SHT31;68825;51.978;5.654;2024-03-02T09:55:19;11.0;59.6
79356;SHT31;68825;51.978;5.654;2024-03-02T09:57:49;11.1;59.5
79356;SHT31;68825;51.978;5.654;2024-03-02T10:00:18;11.1;59.7
79356;SHT31;68825;51.978;5.654;2024-03-02T10:02:46;11.2;59.7
79356;SHT31;68825;51.978;5.654;2024-03-02T10:05:26;11.2;60.2
79356;SHT31;68825;51.978;5.654;2024-03-02T10:08:01;11.3;59.4
79356;SHT31;68825;51.978;5.654;2024-03-02T10:10:38;11.4;59.3
79356;SHT31;68825;51.978;5.654;2024-03-02T10:13:10;11.4;58.6
79356;SHT31;68825;51.978;5.654;2024-03-02T10:15:40;11.5;58.0
79356;SHT31;68825;51.978;5.654;2024-03-02T10:18:11;11.5;57.9
79356;SHT31;68825;51.978;5.654;2024-03-02T10:20:41;11.6;57.4
79356;SHT31;68825;51.978;5.654;2024-03-02T10:23:14;11.6;57.7
79356;SHT31;68825;51.978;5.654;2024-03-02T10:25:44;11.7;57.0
79356;SHT31;68825;51.978;5.654;2024-03-02T10:28:13;11.7;56.2
79356;SHT31;68825;51.978;5.654;2024-03-02T10:30:47;11.8;55.5
79356;SHT31;68825;51.978;5.654;2024-03-02T10:33:17;11.8;55.1
79356;SHT31;68825;51.978;5.654;2024-03-02T10:35:48;11.9;55.0
79356;SHT31;68825;51.978;5.654;2024-03-02T10:38:17;11.9;54.9
79356;SHT31;68825;51.978;5.654;2024-03-02T10:40:48;12.0;55.0
79356;SHT31;68825;51.978;5.654;2024-03-02T10:43:19;12.0;55.1
79356;SHT31;68825;51.978;5.654;2024-03-02T10:45:49;12.1;54.6
79356;SHT31;68825;51.978;5.654;2024-03-02T10:48:19;12.1;54.7
79356;SHT31;68825;51.978;5.654;2024-03-02T10:50:49;12.2;54.6
79356;SHT31;68825;51.978;5.654;2024-03-02T10:53:19;12.2;53.7
79356;SHT31;68825;51.978;5.654;2024-03-02T10:55:50;12.3;52.6
79356;SHT31;68825;51.978;5.654;2024-03-02T10:58:22;12.3;53.6
79356;SHT31;68825;51.978;5.654;2024-03-02T11:00:52;12.4;53.6
79356;SHT31;68825;51.978;5.654;2024-03-02T11:03:21;12.4;53.6
79356;SHT31;68825;51.978;5.654;2024-03-02T11:05:51;12.5;53.6
79356;SHT31;68825;51.978;5.654;2024-03-02T11:08:21;12.5;53.6
79356;SHT31;68825;51.978;5.654;2024-03-02T11:10:58;12.6;54.0
79356;SHT31;68825;51.978;5.654;2024-03-02T11:13:34;12.7;54.2
79356;SHT31;68825;51.978;5.654;2024-03-02T11:16:12;12.8;53.7
79356;SHT31;68825;51.978;5.654;2024-03-02T11:18:42;12.8;53.6
79356;SHT31;68825;51.978;5.654;2024-03-02T11:21:12;12.9;52.5
79356;SHT31;68825;51.978;5.654;2024-03-02T11:23:41;13.0;52.4
79356;SHT31;68825;51.978;5.654;2024-03-02T11:26:20;13.0;52.3
79356;SHT31;68825;51.978;5.654;2024-03-02T11:28:50;13.1;52.7
79356;SHT31;68825;51.978;5.654;2024-03-02T11:31:19;13.1;52.0
79356;SHT31;68825;51.978;5.654;2024-03-02T11:33:49;13.2;52.6
79356;SHT31;68825;51.978;5.654;2024-03-02T11:36:18;13.3;51.4
79356;SHT31;68825;51.978;5.654;2024-03-02T11:38:47;13.3;50.4
79356;SHT31;68825;51.978;5.654;2024-03-02T11:41:22;13.4;50.7
79356;SHT31;68825;51.978;5.654;2024-03-02T11:43:53;13.4;51.4
79356;SHT31;68825;51.978;5.654;2024-03-02T11:46:22;13.5;50.8
79356;SHT31;68825;51.978;5.654;2024-03-02T11:48:50;13.6;49.8
79356;SHT31;68825;51.978;5.654;2024-03-02T11:51:19;13.6;49.5
79356;SHT31;68825;51.978;5.654;2024-03-02T11:53:48;13.7;49.0
79356;SHT31;68825;51.978;5.654;2024-03-02T11:56:18;13.8;48.4
79356;SHT31;68825;51.978;5.654;2024-03-02T11:58:48;13.8;47.0
79356;SHT31;68825;51.978;5.654;2024-03-02T12:01:19;13.9;47.8
79356;SHT31;68825;51.978;5.654;2024-03-02T12:03:49;13.9;48.4
79356;SHT31;68825;51.978;5.654;2024-03-02T12:06:22;14.0;47.9
79356;SHT31;68825;51.978;5.654;2024-03-02T12:08:54;14.1;48.0
79356;SHT31;68825;51.978;5.654;2024-03-02T12:11:23;14.1;49.3
79356;SHT31;68825;51.978;5.654;2024-03-02T12:13:54;14.2;47.9
79356;SHT31;68825;51.978;5.654;2024-03-02T12:16:27;14.3;46.7
79356;SHT31;68825;51.978;5.654;2024-03-02T12:18:56;14.4;46.6
79356;SHT31;68825;51.978;5.654;2024-03-02T12:21:27;14.4;47.3
79356;SHT31;68825;51.978;5.654;2024-03-02T12:23:58;14.4;46.9
79356;SHT31;68825;51.978;5.654;2024-03-02T12:26:26;14.5;47.2
79356;SHT31;68825;51.978;5.654;2024-03-02T12:28:55;14.5;47.0
79356;SHT31;68825;51.978;5.654;2024-03-02T12:31:24;14.6;46.9
79356;SHT31;68825;51.978;5.654;2024-03-02T12:33:55;14.7;47.3
79356;SHT31;68825;51.978;5.654;2024-03-02T12:36:24;14.7;47.0
79356;SHT31;68825;51.978;5.654;2024-03-02T12:38:54;14.8;47.2
79356;SHT31;68825;51.978;5.654;2024-03-02T12:41:26;14.8;47.0
79356;SHT31;68825;51.978;5.654;2024-03-02T12:43:54;14.9;47.1
79356;SHT31;68825;51.978;5.654;2024-03-02T12:46:23;14.9;46.2
79356;SHT31;68825;51.978;5.654;2024-03-02T12:48:51;14.9;46.7
79356;SHT31;68825;51.978;5.654;2024-03-02T12:51:20;14.9;46.8
79356;SHT31;68825;51.978;5.654;2024-03-02T12:53:57;14.9;46.6
79356;SHT31;68825;51.978;5.654;2024-03-02T12:56:26;14.9;46.8
79356;SHT31;68825;51.978;5.654;2024-03-02T12:58:57;14.9;46.6
79356;SHT31;68825;51.978;5.654;2024-03-02T13:01:26;14.9;47.2
79356;SHT31;68825;51.978;5.654;2024-03-02T13:03:55;14.9;46.4
79356;SHT31;68825;51.978;5.654;2024-03-02T13:06:25;14.9;46.5
79356;SHT31;68825;51.978;5.654;2024-03-02T13:08:55;14.9;47.4
79356;SHT31;68825;51.978;5.654;2024-03-02T13:11:24;14.9;45.7
79356;SHT31;68825;51.978;5.654;2024-03-02T13:13:55;15.0;45.9
79356;SHT31;68825;51.978;5.654;2024-03-02T13:16:24;15.0;46.0
79356;SHT31;68825;51.978;5.654;2024-03-02T13:18:52;15.0;46.1
79356;SHT31;68825;51.978;5.654;2024-03-02T13:21:21;15.1;45.9
79356;SHT31;68825;51.978;5.654;2024-03-02T13:23:49;15.1;46.1
79356;SHT31;68825;51.978;5.654;2024-03-02T13:26:18;15.1;46.0
79356;SHT31;68825;51.978;5.654;2024-03-02T13:28:46;15.2;46.0
79356;SHT31;68825;51.978;5.654;2024-03-02T13:31:15;15.2;45.8
79356;SHT31;68825;51.978;5.654;2024-03-02T13:33:43;15.3;46.1
79356;SHT31;68825;51.978;5.654;2024-03-02T13:36:13;15.3;46.0
79356;SHT31;68825;51.978;5.654;2024-03-02T13:38:43;15.3;45.3
79356;SHT31;68825;51.978;5.654;2024-03-02T13:41:12;15.4;45.9
79356;SHT31;68825;51.978;5.654;2024-03-02T13:43:41;15.4;45.4
79356;SHT31;68825;51.978;5.654;2024-03-02T13:46:11;15.5;45.2
79356;SHT31;68825;51.978;5.654;2024-03-02T13:48:40;15.5;45.7
79356;SHT31;68825;51.978;5.654;2024-03-02T13:51:08;15.6;45.2
79356;SHT31;68825;51.978;5.654;2024-03-02T13:53:37;15.6;45.2
79356;SHT31;68825;51.978;5.654;2024-03-02T13:56:07;15.7;44.3
79356;SHT31;68825;51.978;5.654;2024-03-02T13:58:36;15.7;44.6
79356;SHT31;68825;51.978;5.654;2024-03-02T14:01:05;15.8;44.6
79356;SHT31;68825;51.978;5.654;2024-03-02T14:03:36;15.8;44.6
79356;SHT31;68825;51.978;5.654;2024-03-02T14:06:04;15.9;44.3
79356;SHT31;68825;51.978;5.654;2024-03-02T14:08:33;16.0;44.5
79356;SHT31;68825;51.978;5.654;2024-03-02T14:11:02;16.0;44.8
79356;SHT31;68825;51.978;5.654;2024-03-02T14:13:31;16.1;44.0
79356;SHT31;68825;51.978;5.654;2024-03-02T14:16:00;16.2;45.0
79356;SHT31;68825;51.978;5.654;2024-03-02T14:18:28;16.3;43.7
79356;SHT31;68825;51.978;5.654;2024-03-02T14:20:57;16.4;43.8
79356;SHT31;68825;51.978;5.654;2024-03-02T14:23:25;16.4;44.3
79356;SHT31;68825;51.978;5.654;2024-03-02T14:25:55;16.4;43.2
79356;SHT31;68825;51.978;5.654;2024-03-02T14:28:25;16.5;42.9
79356;SHT31;68825;51.978;5.654;2024-03-02T14:30:54;16.5;42.7
79356;SHT31;68825;51.978;5.654;2024-03-02T14:33:24;16.5;42.5
79356;SHT31;68825;51.978;5.654;2024-03-02T14:35:53;16.5;42.4
79356;SHT31;68825;51.978;5.654;2024-03-02T14:38:22;16.5;42.1
79356;SHT31;68825;51.978;5.654;2024-03-02T14:40:51;16.5;42.3
79356;SHT31;68825;51.978;5.654;2024-03-02T14:43:20;16.5;44.1
79356;SHT31;68825;51.978;5.654;2024-03-02T14:45:49;16.5;43.8
79356;SHT31;68825;51.978;5.654;2024-03-02T14:48:18;16.5;43.3
79356;SHT31;68825;51.978;5.654;2024-03-02T14:50:46;16.4;43.6
79356;SHT31;68825;51.978;5.654;2024-03-02T14:53:15;16.4;44.1
79356;SHT31;68825;51.978;5.654;2024-03-02T14:55:44;16.3;43.6
79356;SHT31;68825;51.978;5.654;2024-03-02T14:58:12;16.3;43.4
79356;SHT31;68825;51.978;5.654;2024-03-02T15:00:42;16.3;43.2
79356;SHT31;68825;51.978;5.654;2024-03-02T15:03:10;16.3;43.9
79356;SHT31;68825;51.978;5.654;2024-03-02T15:05:39;16.2;44.1
79356;SHT31;68825;51.978;5.654;2024-03-02T15:08:10;16.2;43.6
79356;SHT31;68825;51.978;5.654;2024-03-02T15:10:38;16.2;44.3
79356;SHT31;68825;51.978;5.654;2024-03-02T15:13:07;16.2;44.2
79356;SHT31;68825;51.978;5.654;2024-03-02T15:15:36;16.1;44.1
79356;SHT31;68825;51.978;5.654;2024-03-02T15:18:05;16.1;44.1
79356;SHT31;68825;51.978;5.654;2024-03-02T15:20:34;16.1;44.0
79356;SHT31;68825;51.978;5.654;2024-03-02T15:23:03;16.1;45.0
79356;SHT31;68825;51.978;5.654;2024-03-02T15:25:31;16.0;45.0
79356;SHT31;68825;51.978;5.654;2024-03-02T15:28:02;16.0;45.1
79356;SHT31;68825;51.978;5.654;2024-03-02T15:30:31;16.0;44.9
79356;SHT31;68825;51.978;5.654;2024-03-02T15:32:59;15.9;45.9
79356;SHT31;68825;51.978;5.654;2024-03-02T15:35:28;15.9;46.1
79356;SHT31;68825;51.978;5.654;2024-03-02T15:37:57;15.8;46.7
79356;SHT31;68825;51.978;5.654;2024-03-02T15:40:27;15.8;46.9
79356;SHT31;68825;51.978;5.654;2024-03-02T15:42:56;15.8;47.1
79356;SHT31;68825;51.978;5.654;2024-03-02T15:45:25;15.7;46.7
79356;SHT31;68825;51.978;5.654;2024-03-02T15:47:59;15.7;47.6
79356;SHT31;68825;51.978;5.654;2024-03-02T15:50:27;15.6;47.8
79356;SHT31;68825;51.978;5.654;2024-03-02T15:52:56;15.6;47.8
79356;SHT31;68825;51.978;5.654;2024-03-02T15:55:30;15.6;48.1
79356;SHT31;68825;51.978;5.654;2024-03-02T15:58:00;15.6;48.5
79356;SHT31;68825;51.978;5.654;2024-03-02T16:00:31;15.5;49.0
79356;SHT31;68825;51.978;5.654;2024-03-02T16:02:59;15.5;49.5
79356;SHT31;68825;51.978;5.654;2024-03-02T16:05:28;15.5;49.3
79356;SHT31;68825;51.978;5.654;2024-03-02T16:07:56;15.4;49.7
79356;SHT31;68825;51.978;5.654;2024-03-02T16:10:27;15.4;49.8
79356;SHT31;68825;51.978;5.654;2024-03-02T16:12:55;15.4;50.2
79356;SHT31;68825;51.978;5.654;2024-03-02T16:15:26;15.4;50.1
79356;SHT31;68825;51.978;5.654;2024-03-02T16:17:55;15.4;49.9